createdAt,value
2023-05-17T00:00:10.639Z,69.26
2023-05-17T00:02:38.701Z,69.19
2023-05-17T00:05:07.325Z,69.22
2023-05-17T00:07:36.531Z,69.14
2023-05-17T00:10:04.475Z,69.60
2023-05-17T00:12:32.305Z,69.30
2023-05-17T00:15:00.046Z,69.28
2023-05-17T00:17:27.861Z,69.77
2023-05-17T00:19:55.953Z,69.68
2023-05-17T00:22:23.725Z,69.85
2023-05-17T00:24:52.861Z,69.70
2023-05-17T00:27:20.639Z,69.86
2023-05-17T00:29:48.412Z,70.16
2023-05-17T00:32:16.152Z,70.13
2023-05-17T00:34:43.918Z,69.96
2023-05-17T00:37:11.766Z,69.94
2023-05-17T00:39:39.542Z,70.10
2023-05-17T00:42:08.766Z,70.52
2023-05-17T00:44:36.549Z,70.33
2023-05-17T00:47:04.428Z,70.54
2023-05-17T00:49:32.220Z,70.83
2023-05-17T00:52:00.493Z,71.33
2023-05-17T00:54:28.253Z,71.64
2023-05-17T00:56:57.175Z,71.85
2023-05-17T00:59:27.269Z,72.31
2023-05-17T01:01:55.170Z,72.01
2023-05-17T01:04:22.954Z,71.82
2023-05-17T01:06:50.774Z,72.01
2023-05-17T01:09:18.899Z,72.02
2023-05-17T01:11:52.637Z,72.18
2023-05-17T01:14:31.829Z,72.06
2023-05-17T01:17:02.806Z,71.80
2023-05-17T01:19:46.816Z,71.92
2023-05-17T01:22:22.276Z,72.40
2023-05-17T01:24:54.599Z,71.93
2023-05-17T01:27:26.561Z,71.93
2023-05-17T01:29:56.262Z,72.18
2023-05-17T01:32:24.805Z,72.79
2023-05-17T01:34:52.607Z,73.00
2023-05-17T01:37:20.393Z,73.10
2023-05-17T01:39:48.152Z,73.18
2023-05-17T01:42:22.520Z,73.47
2023-05-17T01:44:58.164Z,72.83
2023-05-17T01:47:32.014Z,73.17
2023-05-17T01:50:00.740Z,73.60
2023-05-17T01:52:31.894Z,73.52
2023-05-17T01:55:06.690Z,73.63
2023-05-17T01:57:36.936Z,73.84
2023-05-17T02:00:09.232Z,74.08
2023-05-17T02:02:37.350Z,74.39
2023-05-17T02:05:05.722Z,74.50
2023-05-17T02:07:33.508Z,75.08
2023-05-17T02:10:01.327Z,74.84
2023-05-17T02:12:29.117Z,74.79
2023-05-17T02:14:56.912Z,75.70
2023-05-17T02:17:26.367Z,75.44
2023-05-17T02:19:54.241Z,75.77
2023-05-17T02:22:22.045Z,75.68
2023-05-17T02:24:50.066Z,75.72
2023-05-17T02:27:17.861Z,75.61
2023-05-17T02:29:45.633Z,75.74
2023-05-17T02:32:13.457Z,76.19
2023-05-17T02:34:42.652Z,76.06
2023-05-17T02:37:10.464Z,76.36
2023-05-17T02:39:38.230Z,76.12
2023-05-17T02:42:06.587Z,76.93
2023-05-17T02:44:34.416Z,76.50
2023-05-17T02:47:02.203Z,76.51
2023-05-17T02:49:30.052Z,76.75
2023-05-17T02:52:00.421Z,76.30
2023-05-17T02:54:28.218Z,76.24
2023-05-17T02:56:56.017Z,77.07
2023-05-17T02:59:23.839Z,76.52
2023-05-17T03:01:51.648Z,76.23
2023-05-17T03:04:20.388Z,76.67
2023-05-17T03:06:48.229Z,76.69
2023-05-17T03:09:17.381Z,76.44
2023-05-17T03:11:45.192Z,76.44
2023-05-17T03:14:13.585Z,76.75
2023-05-17T03:16:41.543Z,76.34
2023-05-17T03:19:09.488Z,76.81
2023-05-17T03:21:37.416Z,77.45
2023-05-17T03:24:05.857Z,76.93
2023-05-17T03:26:35.006Z,76.78
2023-05-17T03:29:02.813Z,77.48
2023-05-17T03:31:31.283Z,77.70
2023-05-17T03:33:59.257Z,77.77
2023-05-17T03:36:27.149Z,77.57
2023-05-17T03:38:54.971Z,77.59
2023-05-17T03:41:22.827Z,77.49
2023-05-17T03:43:51.978Z,77.74
2023-05-17T03:46:19.805Z,77.87
2023-05-17T03:48:47.626Z,77.83
2023-05-17T03:51:15.556Z,78.42
2023-05-17T03:53:43.705Z,78.25
2023-05-17T03:56:12.008Z,78.54
2023-05-17T03:58:39.905Z,78.16
2023-05-17T04:01:09.082Z,78.28
2023-05-17T04:03:37.474Z,78.56
2023-05-17T04:06:07.374Z,78.62
2023-05-17T04:08:35.702Z,79.00
2023-05-17T04:11:10.253Z,79.35
2023-05-17T04:13:38.251Z,78.98
2023-05-17T04:16:06.883Z,79.34
2023-05-17T04:18:38.069Z,79.06
2023-05-17T04:21:06.433Z,78.83
2023-05-17T04:23:35.156Z,79.11
2023-05-17T04:26:03.276Z,78.89
2023-05-17T04:28:31.209Z,78.58
2023-05-17T04:30:59.145Z,79.18
2023-05-17T04:33:27.507Z,78.83
2023-05-17T04:35:57.797Z,78.77
2023-05-17T04:38:25.566Z,79.26
2023-05-17T04:40:53.359Z,79.04
2023-05-17T04:43:21.220Z,79.13
2023-05-17T04:45:49.529Z,79.29
2023-05-17T04:48:19.622Z,79.22
2023-05-17T04:50:47.646Z,79.29
2023-05-17T04:53:16.870Z,79.00
2023-05-17T04:55:44.945Z,79.08
2023-05-17T04:58:13.120Z,79.55
2023-05-17T05:00:41.120Z,79.60
2023-05-17T05:03:09.006Z,79.12
2023-05-17T05:05:36.944Z,79.17
2023-05-17T05:08:04.952Z,79.06
2023-05-17T05:10:34.091Z,78.90
2023-05-17T05:13:01.938Z,78.15
2023-05-17T05:15:29.892Z,78.21
2023-05-17T05:17:58.004Z,78.62
2023-05-17T05:20:27.911Z,78.14
2023-05-17T05:22:58.542Z,78.05
2023-05-17T05:25:26.726Z,77.79
2023-05-17T05:27:56.199Z,76.95
2023-05-17T05:30:24.188Z,76.73
2023-05-17T05:32:52.466Z,76.54
2023-05-17T05:35:20.910Z,76.21
2023-05-17T05:37:48.848Z,75.75
2023-05-17T05:40:16.977Z,75.73
2023-05-17T05:42:47.071Z,75.46
2023-05-17T05:45:16.661Z,74.65
2023-05-17T05:47:44.493Z,74.87
2023-05-17T05:50:12.557Z,74.84
2023-05-17T05:52:40.326Z,73.99
2023-05-17T05:55:08.812Z,73.67
2023-05-17T05:57:36.846Z,73.03
2023-05-17T06:00:05.969Z,72.34
2023-05-17T06:02:35.261Z,72.38
2023-05-17T06:05:03.905Z,71.62
2023-05-17T06:07:31.680Z,71.74
2023-05-17T06:09:59.501Z,71.49
2023-05-17T06:12:27.424Z,71.55
2023-05-17T06:14:55.203Z,70.43
2023-05-17T06:17:23.290Z,69.58
2023-05-17T06:19:52.887Z,69.38
2023-05-17T06:22:20.745Z,68.62
2023-05-17T06:24:48.588Z,68.24
2023-05-17T06:27:16.460Z,68.05
2023-05-17T06:29:44.355Z,67.75
2023-05-17T06:32:12.881Z,67.34
2023-05-17T06:34:41.004Z,66.83
2023-05-17T06:37:10.260Z,67.48
2023-05-17T06:39:38.064Z,66.35
2023-05-17T06:42:06.545Z,66.27
2023-05-17T06:44:34.350Z,66.08
2023-05-17T06:47:02.144Z,66.25
2023-05-17T06:49:29.981Z,65.80
2023-05-17T06:52:03.055Z,65.44
2023-05-17T06:54:32.673Z,65.21
2023-05-17T06:57:01.604Z,64.53
2023-05-17T06:59:29.834Z,63.75
2023-05-17T07:02:00.161Z,63.48
2023-05-17T07:04:28.132Z,63.78
2023-05-17T07:06:56.103Z,63.41
2023-05-17T07:09:23.952Z,62.83
2023-05-17T07:11:53.149Z,62.66
2023-05-17T07:14:20.997Z,61.42
2023-05-17T07:16:49.331Z,61.07
2023-05-17T07:19:17.370Z,60.49
2023-05-17T07:21:46.196Z,59.63
2023-05-17T07:24:14.017Z,59.40
2023-05-17T07:26:41.876Z,59.40
2023-05-17T07:29:11.085Z,59.43
2023-05-17T07:31:38.876Z,58.67
2023-05-17T07:34:06.729Z,58.30
2023-05-17T07:36:34.720Z,56.67
2023-05-17T07:39:02.638Z,56.04
2023-05-17T07:41:31.658Z,55.66
2023-05-17T07:43:59.483Z,55.20
2023-05-17T07:46:28.737Z,55.40
2023-05-17T07:48:58.532Z,55.33
2023-05-17T07:51:27.147Z,55.24
2023-05-17T07:53:55.154Z,55.40
2023-05-17T07:56:22.977Z,55.51
2023-05-17T07:58:51.208Z,55.53
2023-05-17T08:01:18.999Z,56.34
2023-05-17T08:03:48.914Z,55.50
2023-05-17T08:06:17.301Z,55.55
2023-05-17T08:08:45.393Z,55.74
2023-05-17T08:11:14.188Z,56.18
2023-05-17T08:13:42.201Z,55.86
2023-05-17T08:16:14.349Z,55.35
2023-05-17T08:18:43.278Z,55.56
2023-05-17T08:21:12.914Z,55.81
2023-05-17T08:23:42.070Z,55.25
2023-05-17T08:26:09.958Z,55.46
2023-05-17T08:28:37.812Z,55.44
2023-05-17T08:31:05.836Z,55.92
2023-05-17T08:33:33.761Z,56.39
2023-05-17T08:36:04.299Z,56.41
2023-05-17T08:38:34.369Z,56.51
2023-05-17T08:41:03.173Z,56.96
2023-05-17T08:43:32.069Z,56.22
2023-05-17T08:46:00.176Z,55.97
2023-05-17T08:48:31.669Z,55.38
2023-05-17T08:51:00.152Z,55.56
2023-05-17T08:53:28.249Z,52.05
2023-05-17T08:56:00.493Z,51.19
2023-05-17T08:58:31.048Z,50.85
2023-05-17T09:01:00.458Z,51.90
2023-05-17T09:03:30.740Z,53.36
2023-05-17T09:06:00.197Z,53.49
2023-05-17T09:08:30.158Z,54.15
2023-05-17T09:10:59.598Z,52.63
2023-05-17T09:13:27.597Z,53.00
2023-05-17T09:15:56.023Z,53.68
2023-05-17T09:18:30.622Z,53.61
2023-05-17T09:21:03.772Z,54.22
2023-05-17T09:23:34.236Z,52.23
2023-05-17T09:26:09.304Z,52.51
2023-05-17T09:28:42.128Z,51.51
2023-05-17T09:31:10.818Z,51.20
2023-05-17T09:33:44.393Z,51.60
2023-05-17T09:36:21.409Z,51.05
2023-05-17T09:38:56.447Z,50.77
2023-05-17T09:41:27.793Z,50.98
2023-05-17T09:43:59.402Z,51.56
2023-05-17T09:46:27.357Z,50.77
2023-05-17T09:48:55.516Z,50.00
2023-05-17T09:51:33.648Z,51.02
2023-05-17T09:54:01.780Z,50.86
2023-05-17T09:56:31.366Z,48.93
2023-05-17T09:59:00.797Z,48.40
2023-05-17T10:01:30.305Z,49.36
2023-05-17T10:04:00.875Z,49.00
2023-05-17T10:06:44.547Z,49.88
2023-05-17T10:09:15.813Z,50.18
2023-05-17T10:11:48.289Z,50.32
2023-05-17T10:14:22.778Z,48.87
2023-05-17T10:16:51.755Z,48.92
2023-05-17T10:19:21.124Z,47.40
2023-05-17T10:21:49.767Z,46.41
2023-05-17T10:24:18.104Z,46.32
2023-05-17T10:26:47.656Z,46.14
2023-05-17T10:29:16.592Z,46.21
2023-05-17T10:31:44.905Z,45.62
2023-05-17T10:34:14.348Z,46.11
2023-05-17T10:36:43.619Z,45.01
2023-05-17T10:39:12.395Z,45.33
2023-05-17T10:41:43.431Z,45.10
2023-05-17T10:44:14.997Z,44.90
2023-05-17T10:46:52.628Z,42.83
2023-05-17T10:49:24.500Z,41.65
2023-05-17T10:51:52.769Z,42.30
2023-05-17T10:54:20.756Z,40.60
2023-05-17T10:56:50.022Z,40.97
2023-05-17T10:59:21.851Z,42.50
2023-05-17T11:01:52.662Z,42.60
2023-05-17T11:04:25.878Z,43.58
2023-05-17T11:06:55.949Z,44.26
2023-05-17T11:09:24.916Z,43.23
2023-05-17T11:12:06.215Z,42.62
2023-05-17T11:14:55.724Z,41.66
2023-05-17T11:17:26.445Z,39.75
2023-05-17T11:20:07.336Z,37.68
2023-05-17T11:22:40.695Z,36.95
2023-05-17T11:25:10.439Z,36.71
2023-05-17T11:27:39.875Z,35.84
2023-05-17T11:30:18.602Z,34.66
2023-05-17T11:32:51.860Z,33.17
2023-05-17T11:35:20.747Z,32.77
2023-05-17T11:37:49.385Z,32.08
2023-05-17T11:40:26.334Z,33.14
2023-05-17T11:43:15.254Z,35.68
2023-05-17T11:45:53.394Z,35.77
2023-05-17T11:48:23.539Z,36.73
2023-05-17T11:50:52.774Z,37.55
2023-05-17T11:53:21.623Z,36.95
2023-05-17T11:55:51.740Z,35.42
2023-05-17T11:58:21.814Z,35.46
2023-05-17T12:01:01.483Z,33.84
2023-05-17T12:03:30.324Z,32.21
2023-05-17T12:06:06.640Z,32.96
2023-05-17T12:08:36.000Z,30.65
2023-05-17T12:11:04.762Z,32.79
2023-05-17T12:13:34.292Z,31.97
2023-05-17T12:16:05.827Z,33.20
2023-05-17T12:18:38.168Z,32.93
2023-05-17T12:21:06.953Z,32.24
2023-05-17T12:23:37.545Z,30.48
2023-05-17T12:26:06.874Z,31.67
2023-05-17T12:28:35.130Z,30.09
2023-05-17T12:31:05.479Z,30.99
2023-05-17T12:33:35.488Z,30.50
2023-05-17T12:36:04.653Z,30.87
2023-05-17T12:38:33.808Z,31.67
2023-05-17T12:41:02.649Z,31.59
2023-05-17T12:43:31.768Z,30.58
2023-05-17T12:46:18.985Z,28.59
2023-05-17T12:48:47.328Z,29.06
2023-05-17T12:51:16.618Z,29.42
2023-05-17T12:53:45.400Z,29.01
2023-05-17T12:56:23.080Z,29.11
2023-05-17T12:59:08.873Z,29.78
2023-05-17T13:01:40.034Z,28.22
2023-05-17T13:04:07.933Z,28.85
2023-05-17T13:06:54.028Z,27.95
2023-05-17T13:09:24.247Z,29.45
2023-05-17T13:11:52.503Z,29.01
2023-05-17T13:14:34.961Z,27.86
2023-05-17T13:17:06.079Z,28.41
2023-05-17T13:19:35.807Z,28.49
2023-05-17T13:22:03.954Z,29.26
2023-05-17T13:24:32.570Z,28.02
2023-05-17T13:27:00.392Z,28.79
2023-05-17T13:29:38.799Z,28.83
2023-05-17T13:32:09.683Z,28.71
2023-05-17T13:34:37.664Z,29.29
2023-05-17T13:37:08.653Z,30.76
2023-05-17T13:39:38.286Z,29.88
2023-05-17T13:42:06.621Z,28.53
2023-05-17T13:44:34.595Z,28.06
2023-05-17T13:47:02.459Z,28.38
2023-05-17T13:49:32.032Z,27.30
2023-05-17T13:52:00.745Z,26.19
2023-05-17T13:54:28.728Z,27.65
2023-05-17T13:56:57.667Z,28.06
2023-05-17T13:59:26.233Z,28.12
2023-05-17T14:01:54.089Z,28.10
2023-05-17T14:04:22.685Z,28.95
2023-05-17T14:06:54.771Z,28.07
2023-05-17T14:09:22.867Z,27.80
2023-05-17T14:11:50.652Z,26.01
2023-05-17T14:14:18.449Z,27.25
2023-05-17T14:16:46.270Z,28.43
2023-05-17T14:19:14.264Z,28.09
2023-05-17T14:21:42.095Z,27.15
2023-05-17T14:24:11.450Z,27.08
2023-05-17T14:26:39.404Z,27.09
2023-05-17T14:29:07.639Z,27.16
2023-05-17T14:31:35.594Z,27.38
2023-05-17T14:34:03.975Z,27.02
2023-05-17T14:36:35.682Z,27.26
2023-05-17T14:39:03.885Z,27.87
2023-05-17T14:41:33.157Z,28.42
2023-05-17T14:44:01.133Z,27.63
2023-05-17T14:46:28.980Z,27.67
2023-05-17T14:48:56.986Z,27.71
2023-05-17T14:51:25.155Z,28.06
2023-05-17T14:53:54.326Z,28.75
2023-05-17T14:56:22.303Z,28.55
2023-05-17T14:58:51.595Z,27.01
2023-05-17T15:01:19.431Z,28.18
2023-05-17T15:03:47.384Z,27.00
2023-05-17T15:06:15.404Z,26.51
2023-05-17T15:08:43.255Z,26.16
2023-05-17T15:11:11.192Z,26.74
2023-05-17T15:13:38.992Z,27.78
2023-05-17T15:16:09.006Z,27.03
2023-05-17T15:18:37.922Z,26.44
2023-05-17T15:21:06.716Z,26.83
2023-05-17T15:23:34.571Z,26.69
2023-05-17T15:26:02.377Z,27.50
2023-05-17T15:28:30.155Z,27.14
2023-05-17T15:31:01.998Z,27.03
2023-05-17T15:33:32.266Z,27.18
2023-05-17T15:36:00.171Z,26.78
2023-05-17T15:38:27.938Z,26.53
2023-05-17T15:41:05.141Z,26.34
2023-05-17T15:43:33.595Z,26.67
2023-05-17T15:46:01.896Z,26.81
2023-05-17T15:48:31.146Z,25.80
2023-05-17T15:50:59.189Z,26.35
2023-05-17T15:53:27.902Z,26.73
2023-05-17T15:55:56.171Z,26.08
2023-05-17T15:58:25.583Z,25.85
2023-05-17T16:00:53.427Z,26.74
2023-05-17T16:03:21.274Z,27.20
2023-05-17T16:05:50.524Z,26.35
2023-05-17T16:08:20.482Z,25.61
2023-05-17T16:10:48.427Z,26.22
2023-05-17T16:13:16.310Z,26.22
2023-05-17T16:15:44.393Z,26.48
2023-05-17T16:18:14.823Z,25.95
2023-05-17T16:20:42.961Z,26.34
2023-05-17T16:23:12.927Z,26.71
2023-05-17T16:25:41.596Z,27.39
2023-05-17T16:28:09.426Z,27.23
2023-05-17T16:30:37.572Z,27.57
2023-05-17T16:33:08.260Z,26.43
2023-05-17T16:35:36.487Z,27.09
2023-05-17T16:38:04.276Z,27.38
2023-05-17T16:40:33.849Z,27.47
2023-05-17T16:43:02.147Z,27.01
2023-05-17T16:45:30.120Z,26.83
2023-05-17T16:47:58.225Z,27.11
2023-05-17T16:50:26.129Z,27.16
2023-05-17T16:52:54.023Z,26.90
2023-05-17T16:55:21.951Z,27.20
2023-05-17T16:57:51.428Z,28.47
2023-05-17T17:00:20.077Z,27.29
2023-05-17T17:02:49.395Z,27.78
2023-05-17T17:05:20.593Z,27.75
2023-05-17T17:07:48.370Z,27.56
2023-05-17T17:10:16.386Z,27.61
2023-05-17T17:12:44.174Z,29.41
2023-05-17T17:15:14.088Z,29.76
2023-05-17T17:17:41.994Z,31.33
2023-05-17T17:20:11.256Z,30.14
2023-05-17T17:22:39.096Z,31.88
2023-05-17T17:25:07.692Z,30.91
2023-05-17T17:27:35.877Z,30.41
2023-05-17T17:30:04.095Z,30.80
2023-05-17T17:32:33.474Z,29.64
2023-05-17T17:35:01.590Z,31.37
2023-05-17T17:37:29.427Z,30.05
2023-05-17T17:39:57.502Z,32.09
2023-05-17T17:42:25.278Z,31.57
2023-05-17T17:44:53.112Z,32.11
2023-05-17T17:47:21.026Z,31.21
2023-05-17T17:49:50.276Z,30.81
2023-05-17T17:52:18.119Z,32.42
2023-05-17T17:54:46.285Z,31.95
2023-05-17T17:57:14.227Z,32.34
2023-05-17T17:59:42.006Z,32.35
2023-05-17T18:02:10.058Z,32.31
2023-05-17T18:04:37.922Z,31.14
2023-05-17T18:07:07.293Z,32.68
2023-05-17T18:09:35.055Z,32.97
2023-05-17T18:12:03.673Z,32.60
2023-05-17T18:14:31.495Z,32.44
2023-05-17T18:16:59.320Z,32.49
2023-05-17T18:19:27.171Z,33.37
2023-05-17T18:21:54.968Z,32.70
2023-05-17T18:24:24.208Z,33.84
2023-05-17T18:26:52.059Z,35.17
2023-05-17T18:29:19.965Z,33.61
2023-05-17T18:31:48.422Z,34.99
2023-05-17T18:34:16.354Z,34.97
2023-05-17T18:36:44.186Z,36.40
2023-05-17T18:39:12.102Z,36.12
2023-05-17T18:41:41.291Z,36.14
2023-05-17T18:44:09.064Z,36.43
2023-05-17T18:46:36.995Z,37.25
2023-05-17T18:49:05.647Z,37.49
2023-05-17T18:51:33.498Z,37.50
2023-05-17T18:54:01.286Z,38.27
2023-05-17T18:56:30.423Z,38.25
2023-05-17T18:59:00.188Z,38.93
2023-05-17T19:01:28.521Z,39.09
2023-05-17T19:03:56.598Z,39.52
2023-05-17T19:06:26.760Z,39.66
2023-05-17T19:08:55.426Z,40.35
2023-05-17T19:11:23.230Z,40.35
2023-05-17T19:13:51.341Z,40.73
2023-05-17T19:16:20.491Z,40.84
2023-05-17T19:18:48.345Z,40.42
2023-05-17T19:21:16.232Z,42.13
2023-05-17T19:23:44.072Z,42.25
2023-05-17T19:26:11.954Z,42.35
2023-05-17T19:28:40.010Z,42.00
2023-05-17T19:31:08.343Z,42.55
2023-05-17T19:33:37.817Z,42.57
2023-05-17T19:36:05.939Z,42.80
2023-05-17T19:38:33.780Z,42.97
2023-05-17T19:41:01.962Z,42.63
2023-05-17T19:43:29.821Z,44.81
2023-05-17T19:45:57.620Z,43.72
2023-05-17T19:48:27.538Z,43.91
2023-05-17T19:50:57.251Z,44.18
2023-05-17T19:53:25.051Z,44.73
2023-05-17T19:55:53.406Z,44.78
2023-05-17T19:58:21.319Z,44.66
2023-05-17T20:00:49.108Z,45.24
2023-05-17T20:03:17.153Z,45.21
2023-05-17T20:05:45.239Z,45.66
2023-05-17T20:08:14.705Z,46.19
2023-05-17T20:10:42.554Z,46.20
2023-05-17T20:13:10.936Z,46.49
2023-05-17T20:15:38.975Z,46.59
2023-05-17T20:18:09.276Z,46.89
2023-05-17T20:20:37.276Z,47.07
2023-05-17T20:23:06.303Z,47.71
2023-05-17T20:25:36.222Z,47.91
2023-05-17T20:28:04.044Z,47.83
2023-05-17T20:30:32.193Z,47.86
2023-05-17T20:33:00.269Z,48.19
2023-05-17T20:35:28.469Z,48.19
2023-05-17T20:37:56.272Z,47.67
2023-05-17T20:40:24.058Z,47.73
2023-05-17T20:42:53.665Z,48.49
2023-05-17T20:45:21.753Z,48.49
2023-05-17T20:47:51.307Z,48.94
2023-05-17T20:50:21.470Z,48.61
2023-05-17T20:52:49.666Z,48.76
2023-05-17T20:55:17.660Z,48.75
2023-05-17T20:57:45.442Z,48.91
2023-05-17T21:00:17.171Z,49.29
2023-05-17T21:02:45.354Z,49.00
2023-05-17T21:05:13.869Z,49.20
2023-05-17T21:07:41.780Z,48.57
2023-05-17T21:10:10.483Z,48.95
2023-05-17T21:12:38.665Z,49.40
2023-05-17T21:15:15.723Z,50.16
2023-05-17T21:17:57.063Z,49.79
2023-05-17T21:20:25.062Z,49.52
2023-05-17T21:22:52.899Z,50.05
2023-05-17T21:25:21.115Z,50.44
2023-05-17T21:27:48.902Z,49.97
2023-05-17T21:30:17.106Z,51.26
2023-05-17T21:32:45.256Z,50.73
2023-05-17T21:35:14.661Z,50.66
2023-05-17T21:37:42.595Z,50.85
2023-05-17T21:40:11.150Z,51.00
2023-05-17T21:42:39.200Z,51.11
2023-05-17T21:45:08.112Z,51.46
2023-05-17T21:47:36.828Z,51.53
2023-05-17T21:50:05.938Z,52.30
2023-05-17T21:52:35.363Z,51.68
2023-05-17T21:55:03.172Z,51.53
2023-05-17T21:57:33.032Z,51.88
2023-05-17T22:00:01.186Z,51.24
2023-05-17T22:02:29.359Z,51.55
2023-05-17T22:04:57.331Z,51.49
2023-05-17T22:07:25.643Z,51.40
2023-05-17T22:09:55.328Z,51.75
2023-05-17T22:12:25.684Z,51.54
2023-05-17T22:14:54.291Z,51.43
2023-05-17T22:17:29.519Z,51.62
2023-05-17T22:20:04.098Z,51.66
2023-05-17T22:22:32.902Z,52.02
2023-05-17T22:25:02.614Z,51.75
2023-05-17T22:27:30.540Z,51.87
2023-05-17T22:29:58.431Z,51.43
2023-05-17T22:32:26.563Z,51.42
2023-05-17T22:34:56.395Z,51.64
2023-05-17T22:37:24.360Z,51.43
2023-05-17T22:39:52.602Z,51.83
2023-05-17T22:42:22.076Z,52.21
2023-05-17T22:44:49.878Z,52.09
2023-05-17T22:47:17.965Z,52.50
2023-05-17T22:49:46.943Z,52.20
2023-05-17T22:52:16.618Z,52.58
2023-05-17T22:54:44.508Z,52.78
2023-05-17T22:57:12.801Z,52.87
2023-05-17T22:59:44.053Z,53.00
2023-05-17T23:02:12.865Z,52.95
2023-05-17T23:04:41.055Z,53.08
2023-05-17T23:07:10.099Z,53.48
2023-05-17T23:09:40.689Z,53.64
2023-05-17T23:12:13.940Z,53.94
2023-05-17T23:14:43.571Z,53.58
2023-05-17T23:17:11.552Z,53.70
2023-05-17T23:19:40.736Z,54.00
2023-05-17T23:22:13.212Z,54.09
2023-05-17T23:24:41.167Z,53.75
2023-05-17T23:27:10.182Z,54.26
2023-05-17T23:29:41.468Z,54.23
2023-05-17T23:32:10.757Z,54.15
2023-05-17T23:34:39.010Z,54.26
2023-05-17T23:37:06.881Z,54.06
2023-05-17T23:39:34.677Z,54.33
2023-05-17T23:42:02.894Z,54.66
2023-05-17T23:44:30.782Z,54.87
2023-05-17T23:46:59.985Z,54.35
2023-05-17T23:49:29.188Z,54.54
2023-05-17T23:51:58.000Z,54.28
2023-05-17T23:54:26.110Z,54.50
2023-05-17T23:56:53.978Z,54.59
2023-05-17T23:59:24.444Z,54.58
